createdAt,value
2022-08-12T00:01:02.967Z,44.02
2022-08-12T00:03:50.315Z,44.55
2022-08-12T00:06:37.937Z,44.74
2022-08-12T00:09:26.390Z,44.33
2022-08-12T00:12:14.117Z,44.21
2022-08-12T00:15:01.708Z,44.43
2022-08-12T00:17:47.794Z,44.95
2022-08-12T00:20:34.121Z,44.37
2022-08-12T00:23:20.380Z,44.21
2022-08-12T00:26:21.573Z,44.80
2022-08-12T00:29:13.225Z,44.83
2022-08-12T00:32:00.458Z,44.56
2022-08-12T00:34:49.070Z,44.97
2022-08-12T00:37:38.480Z,44.84
2022-08-12T00:40:26.186Z,44.75
2022-08-12T00:42:54.835Z,45.05
2022-08-12T00:45:24.589Z,45.20
2022-08-12T00:47:53.900Z,45.67
2022-08-12T00:50:23.358Z,45.46
2022-08-12T00:52:53.615Z,45.33
2022-08-12T00:55:22.376Z,45.41
2022-08-12T00:57:52.231Z,45.28
2022-08-12T01:00:22.640Z,45.24
2022-08-12T01:02:55.788Z,45.15
2022-08-12T01:05:42.804Z,45.81
2022-08-12T01:08:43.252Z,45.04
2022-08-12T01:11:31.856Z,45.63
2022-08-12T01:14:01.535Z,45.80
2022-08-12T01:16:29.942Z,45.70
2022-08-12T01:19:00.248Z,45.98
2022-08-12T01:21:46.720Z,45.54
2022-08-12T01:24:36.753Z,46.13
2022-08-12T01:27:07.742Z,46.71
2022-08-12T01:29:41.837Z,46.20
2022-08-12T01:32:12.658Z,46.59
2022-08-12T01:34:43.202Z,46.20
2022-08-12T01:37:11.709Z,46.24
2022-08-12T01:40:36.046Z,46.60
2022-08-12T01:42:46.440Z,47.50
2022-08-12T01:45:15.366Z,47.00
2022-08-12T01:47:55.141Z,46.76
2022-08-12T01:50:27.683Z,47.14
2022-08-12T01:53:05.757Z,47.38
2022-08-12T01:55:38.361Z,47.46
2022-08-12T01:58:16.503Z,47.46
2022-08-12T02:00:54.954Z,47.45
2022-08-12T02:03:54.418Z,47.04
2022-08-12T02:06:45.063Z,47.52
2022-08-12T02:09:33.141Z,47.38
2022-08-12T02:12:08.547Z,47.38
2022-08-12T02:14:52.752Z,47.61
2022-08-12T02:17:55.410Z,47.69
2022-08-12T02:20:35.316Z,47.97
2022-08-12T02:23:19.424Z,48.51
2022-08-12T02:25:48.376Z,48.35
2022-08-12T02:28:18.057Z,47.91
2022-08-12T02:30:46.719Z,48.86
2022-08-12T02:33:15.123Z,48.99
2022-08-12T02:35:43.254Z,48.38
2022-08-12T02:38:12.846Z,49.04
2022-08-12T02:40:45.473Z,48.97
2022-08-12T02:43:19.150Z,49.18
2022-08-12T02:45:51.377Z,48.49
2022-08-12T02:48:24.801Z,49.62
2022-08-12T02:50:53.972Z,49.62
2022-08-12T02:53:22.376Z,49.31
2022-08-12T02:55:50.555Z,48.89
2022-08-12T02:58:20.611Z,48.85
2022-08-12T03:01:02.379Z,49.34
2022-08-12T03:03:35.130Z,49.57
2022-08-12T03:06:06.458Z,49.37
2022-08-12T03:08:41.271Z,48.89
2022-08-12T03:11:16.131Z,49.60
2022-08-12T03:13:47.908Z,49.65
2022-08-12T03:16:16.019Z,49.97
2022-08-12T03:18:45.956Z,50.47
2022-08-12T03:21:55.669Z,50.09
2022-08-12T03:24:09.385Z,50.83
2022-08-12T03:26:38.592Z,50.58
2022-08-12T03:29:08.456Z,50.24
2022-08-12T03:31:36.913Z,50.36
2022-08-12T03:34:07.649Z,50.32
2022-08-12T03:36:38.088Z,50.69
2022-08-12T03:39:36.546Z,50.81
2022-08-12T03:42:28.669Z,50.99
2022-08-12T03:45:32.855Z,50.71
2022-08-12T03:48:23.974Z,51.22
2022-08-12T03:51:10.511Z,51.28
2022-08-12T03:53:56.470Z,51.29
2022-08-12T03:56:42.371Z,51.54
2022-08-12T03:59:28.955Z,51.84
2022-08-12T04:01:58.743Z,52.06
2022-08-12T04:04:28.699Z,52.37
2022-08-12T04:06:58.139Z,51.76
2022-08-12T04:09:26.816Z,52.28
2022-08-12T04:12:12.359Z,51.87
2022-08-12T04:14:40.853Z,51.68
2022-08-12T04:17:12.062Z,51.89
2022-08-12T04:19:40.248Z,51.96
2022-08-12T04:22:12.623Z,52.18
2022-08-12T04:24:42.264Z,52.41
2022-08-12T04:27:12.596Z,52.06
2022-08-12T04:30:21.315Z,51.68
2022-08-12T04:32:32.158Z,51.82
2022-08-12T04:35:00.372Z,52.86
2022-08-12T04:37:28.590Z,52.11
2022-08-12T04:40:17.236Z,51.92
2022-08-12T04:42:56.906Z,52.67
2022-08-12T04:45:25.235Z,52.54
2022-08-12T04:47:54.862Z,52.12
2022-08-12T04:50:35.373Z,52.34
2022-08-12T04:53:05.538Z,51.47
2022-08-12T04:55:34.935Z,51.59
2022-08-12T04:58:03.290Z,52.53
2022-08-12T05:00:31.484Z,52.61
2022-08-12T05:03:01.514Z,52.29
2022-08-12T05:05:33.921Z,52.03
2022-08-12T05:08:07.946Z,52.45
2022-08-12T05:10:36.321Z,52.81
2022-08-12T05:13:08.635Z,52.65
2022-08-12T05:16:00.263Z,52.66
2022-08-12T05:18:29.445Z,52.76
2022-08-12T05:20:59.218Z,53.27
2022-08-12T05:23:27.789Z,53.23
2022-08-12T05:25:57.516Z,54.19
2022-08-12T05:28:27.346Z,53.39
2022-08-12T05:30:56.632Z,53.31
2022-08-12T05:33:26.733Z,53.20
2022-08-12T05:35:56.440Z,53.42
2022-08-12T05:38:43.663Z,53.53
2022-08-12T05:41:19.302Z,52.88
2022-08-12T05:43:51.121Z,53.01
2022-08-12T05:46:19.770Z,53.35
2022-08-12T05:48:49.640Z,53.17
2022-08-12T05:51:19.790Z,53.27
2022-08-12T05:53:48.441Z,53.25
2022-08-12T05:56:21.648Z,52.78
2022-08-12T05:58:51.374Z,53.45
2022-08-12T06:02:09.528Z,52.50
2022-08-12T06:04:10.169Z,53.38
2022-08-12T06:06:42.348Z,53.04
2022-08-12T06:09:11.531Z,53.67
2022-08-12T06:12:05.247Z,53.17
2022-08-12T06:14:35.281Z,53.93
2022-08-12T06:17:04.198Z,53.49
2022-08-12T06:20:26.633Z,52.86
2022-08-12T06:22:22.157Z,52.81
2022-08-12T06:24:53.215Z,52.98
2022-08-12T06:27:21.786Z,52.64
2022-08-12T06:30:08.283Z,52.99
2022-08-12T06:32:51.904Z,52.06
2022-08-12T06:35:47.893Z,51.79
2022-08-12T06:38:19.466Z,51.72
2022-08-12T06:41:08.980Z,51.12
2022-08-12T06:44:06.921Z,52.32
2022-08-12T06:46:26.886Z,52.07
2022-08-12T06:48:59.377Z,51.00
2022-08-12T06:51:30.056Z,50.98
2022-08-12T06:54:00.550Z,51.20
2022-08-12T06:56:59.627Z,50.73
2022-08-12T06:59:17.463Z,50.46
2022-08-12T07:01:51.043Z,50.46
2022-08-12T07:04:37.864Z,50.61
2022-08-12T07:07:08.334Z,50.49
2022-08-12T07:10:05.527Z,49.65
2022-08-12T07:12:27.723Z,49.58
2022-08-12T07:14:57.758Z,50.87
2022-08-12T07:17:26.463Z,50.32
2022-08-12T07:19:57.992Z,49.83
2022-08-12T07:22:28.928Z,49.83
2022-08-12T07:25:16.192Z,48.97
2022-08-12T07:27:46.804Z,48.71
2022-08-12T07:30:15.557Z,48.48
2022-08-12T07:32:49.861Z,48.95
2022-08-12T07:35:19.656Z,49.01
2022-08-12T07:37:50.671Z,48.62
2022-08-12T07:40:21.293Z,48.74
2022-08-12T07:42:49.671Z,49.81
2022-08-12T07:45:19.571Z,49.26
2022-08-12T07:47:48.737Z,48.78
2022-08-12T07:50:23.792Z,49.00
2022-08-12T07:52:52.447Z,49.12
2022-08-12T07:55:21.960Z,48.92
2022-08-12T07:57:52.542Z,48.61
2022-08-12T08:00:21.166Z,48.13
2022-08-12T08:02:53.522Z,48.06
2022-08-12T08:05:23.519Z,48.71
2022-08-12T08:07:53.448Z,48.91
2022-08-12T08:10:23.089Z,48.21
2022-08-12T08:12:58.239Z,47.74
2022-08-12T08:15:51.173Z,47.27
2022-08-12T08:18:26.654Z,47.81
2022-08-12T08:20:56.944Z,47.42
2022-08-12T08:23:56.230Z,48.00
2022-08-12T08:26:27.411Z,47.28
2022-08-12T08:28:55.795Z,47.38
2022-08-12T08:31:23.946Z,46.71
2022-08-12T08:34:05.014Z,45.28
2022-08-12T08:36:43.736Z,44.03
2022-08-12T08:39:17.089Z,44.36
2022-08-12T08:42:16.363Z,44.80
2022-08-12T08:44:49.746Z,44.24
2022-08-12T08:47:26.524Z,44.40
2022-08-12T08:49:57.514Z,44.12
2022-08-12T08:52:40.074Z,43.61
2022-08-12T08:55:10.669Z,43.42
2022-08-12T08:57:43.843Z,42.68
2022-08-12T09:00:16.746Z,42.91
2022-08-12T09:02:49.396Z,43.21
2022-08-12T09:05:27.480Z,43.06
2022-08-12T09:10:47.221Z,41.58
2022-08-12T09:16:20.961Z,41.15
2022-08-12T09:18:52.592Z,41.52
2022-08-12T09:21:54.535Z,41.76
2022-08-12T09:24:27.687Z,41.73
2022-08-12T09:26:56.220Z,41.86
2022-08-12T09:30:11.094Z,42.42
2022-08-12T09:32:56.008Z,41.56
2022-08-12T09:35:21.874Z,40.95
2022-08-12T09:37:58.154Z,40.76
2022-08-12T09:41:01.819Z,40.10
2022-08-12T09:43:34.810Z,39.93
2022-08-12T09:46:21.649Z,39.15
2022-08-12T09:48:55.868Z,39.10
2022-08-12T09:51:37.595Z,38.67
2022-08-12T09:54:31.674Z,38.25
2022-08-12T09:56:59.521Z,38.20
2022-08-12T10:00:17.665Z,38.40
2022-08-12T10:02:44.846Z,37.97
2022-08-12T10:05:13.989Z,38.19
2022-08-12T10:07:46.519Z,38.04
2022-08-12T10:10:23.056Z,37.05
2022-08-12T10:13:34.832Z,37.25
2022-08-12T10:16:05.508Z,37.32
2022-08-12T10:18:51.753Z,36.95
2022-08-12T10:21:23.236Z,37.00
2022-08-12T10:23:55.128Z,36.66
2022-08-12T10:26:43.112Z,36.06
2022-08-12T10:30:03.406Z,36.44
2022-08-12T10:32:45.078Z,36.85
2022-08-12T10:35:14.374Z,36.73
2022-08-12T10:38:33.849Z,36.61
2022-08-12T10:40:34.536Z,35.85
2022-08-12T10:43:23.776Z,36.04
2022-08-12T10:45:54.302Z,35.54
2022-08-12T10:48:34.138Z,35.10
2022-08-12T10:52:03.116Z,35.10
2022-08-12T10:54:00.667Z,34.14
2022-08-12T10:56:34.490Z,33.49
2022-08-12T10:59:05.485Z,33.08
2022-08-12T11:04:18.803Z,33.28
2022-08-12T11:04:43.684Z,33.32
2022-08-12T11:08:38.705Z,33.05
2022-08-12T11:10:08.362Z,32.80
2022-08-12T11:12:58.760Z,32.60
2022-08-12T11:16:04.293Z,32.58
2022-08-12T11:18:17.837Z,32.73
2022-08-12T11:20:49.195Z,32.62
2022-08-12T11:23:26.142Z,31.79
2022-08-12T11:26:07.612Z,31.27
2022-08-12T11:28:38.613Z,31.59
2022-08-12T11:31:13.262Z,31.05
2022-08-12T11:34:05.749Z,30.80
2022-08-12T11:36:32.072Z,30.92
2022-08-12T11:39:05.262Z,30.69
2022-08-12T11:41:34.800Z,30.45
2022-08-12T11:44:35.170Z,30.20
2022-08-12T11:46:53.089Z,30.17
2022-08-12T11:49:32.220Z,29.44
2022-08-12T11:52:26.570Z,28.78
2022-08-12T11:54:55.140Z,28.64
2022-08-12T11:58:34.154Z,28.98
2022-08-12T12:03:01.636Z,28.24
2022-08-12T12:05:41.539Z,28.04
2022-08-12T12:08:38.111Z,27.87
2022-08-12T12:11:11.849Z,28.07
2022-08-12T12:14:07.955Z,28.21
2022-08-12T12:16:28.310Z,27.59
2022-08-12T12:18:58.119Z,27.42
2022-08-12T12:21:46.990Z,26.69
2022-08-12T12:24:14.650Z,25.90
2022-08-12T12:27:00.077Z,25.45
2022-08-12T12:30:19.427Z,25.43
2022-08-12T12:32:18.582Z,25.26
2022-08-12T12:35:13.848Z,24.95
2022-08-12T12:38:04.687Z,24.95
2022-08-12T12:40:30.089Z,24.46
2022-08-12T12:43:05.079Z,24.29
2022-08-12T12:45:35.459Z,24.84
2022-08-12T12:48:05.497Z,24.76
2022-08-12T12:50:42.412Z,25.01
2022-08-12T12:54:08.162Z,24.62
2022-08-12T12:56:15.962Z,24.87
2022-08-12T12:58:45.774Z,24.40
2022-08-12T13:01:26.621Z,24.10
2022-08-12T13:04:02.099Z,24.11
2022-08-12T13:06:32.291Z,24.07
2022-08-12T13:09:02.594Z,23.53
2022-08-12T13:11:40.655Z,22.33
2022-08-12T13:14:28.775Z,22.90
2022-08-12T13:17:02.989Z,22.90
2022-08-12T13:19:38.782Z,22.66
2022-08-12T13:22:20.702Z,22.93
2022-08-12T13:24:54.932Z,22.57
2022-08-12T13:27:35.664Z,22.88
2022-08-12T13:30:11.393Z,22.26
2022-08-12T13:32:41.562Z,23.07
2022-08-12T13:35:19.413Z,23.26
2022-08-12T13:38:02.430Z,22.75
2022-08-12T13:40:34.289Z,23.20
2022-08-12T13:43:06.385Z,23.75
2022-08-12T13:45:36.740Z,23.21
2022-08-12T13:48:06.780Z,23.37
2022-08-12T13:50:37.521Z,22.52
2022-08-12T13:53:24.515Z,22.41
2022-08-12T13:56:01.627Z,22.44
2022-08-12T13:58:34.693Z,22.94
2022-08-12T14:01:09.213Z,23.68
2022-08-12T14:03:51.128Z,23.08
2022-08-12T14:06:20.904Z,23.19
2022-08-12T14:08:50.527Z,23.42
2022-08-12T14:11:25.364Z,23.41
2022-08-12T14:14:04.301Z,23.68
2022-08-12T14:16:48.700Z,23.48
2022-08-12T14:19:24.466Z,23.25
2022-08-12T14:21:59.688Z,22.64
2022-08-12T14:24:31.660Z,22.59
2022-08-12T14:27:02.069Z,22.89
2022-08-12T14:29:59.055Z,23.39
2022-08-12T14:32:21.630Z,24.41
2022-08-12T14:34:53.083Z,24.41
2022-08-12T14:37:56.265Z,25.03
2022-08-12T14:40:18.410Z,25.09
2022-08-12T14:42:47.284Z,25.32
2022-08-12T14:45:15.866Z,24.70
2022-08-12T14:47:58.702Z,23.64
2022-08-12T14:50:57.529Z,23.26
2022-08-12T14:59:23.447Z,23.30
2022-08-12T15:01:52.435Z,22.92
2022-08-12T15:04:31.319Z,22.35
2022-08-12T15:07:00.192Z,22.66
2022-08-12T15:09:29.530Z,22.40
2022-08-12T15:12:03.102Z,22.26
2022-08-12T15:14:32.465Z,21.96
2022-08-12T15:17:07.155Z,22.70
2022-08-12T15:20:31.241Z,21.98
2022-08-12T15:22:36.953Z,22.08
2022-08-12T15:25:17.692Z,22.30
2022-08-12T15:28:04.301Z,21.78
2022-08-12T15:30:35.270Z,21.79
2022-08-12T15:33:12.730Z,21.23
2022-08-12T15:35:53.228Z,21.61
2022-08-12T15:38:24.896Z,20.86
2022-08-12T15:40:59.066Z,20.56
2022-08-12T15:44:17.055Z,20.22
2022-08-12T15:46:25.543Z,20.24
2022-08-12T15:48:54.457Z,20.37
2022-08-12T15:51:57.258Z,20.17
2022-08-12T15:54:33.103Z,19.92
2022-08-12T15:57:08.228Z,20.31
2022-08-12T16:00:03.758Z,19.57
2022-08-12T16:02:29.602Z,19.64
2022-08-12T16:04:58.581Z,19.30
2022-08-12T16:07:31.213Z,19.39
2022-08-12T16:10:08.387Z,19.30
2022-08-12T16:12:43.458Z,19.49
2022-08-12T16:15:25.015Z,19.29
2022-08-12T16:18:20.290Z,19.58
2022-08-12T16:20:46.670Z,18.93
2022-08-12T16:23:36.525Z,20.00
2022-08-12T16:26:15.353Z,20.15
2022-08-12T16:28:56.213Z,20.41
2022-08-12T16:31:25.134Z,20.17
2022-08-12T16:34:00.592Z,20.12
2022-08-12T16:36:30.143Z,20.50
2022-08-12T16:39:03.707Z,20.40
2022-08-12T16:41:39.970Z,21.09
2022-08-12T16:44:09.209Z,21.59
2022-08-12T16:46:40.197Z,22.39
2022-08-12T16:49:26.061Z,23.17
2022-08-12T16:51:58.161Z,22.78
2022-08-12T16:54:36.185Z,23.20
2022-08-12T16:57:09.636Z,23.32
2022-08-12T16:59:54.186Z,23.10
2022-08-12T17:02:33.466Z,22.54
2022-08-12T17:05:04.208Z,22.34
2022-08-12T17:07:36.124Z,22.46
2022-08-12T17:10:08.845Z,22.83
2022-08-12T17:12:38.369Z,22.87
2022-08-12T17:15:50.496Z,23.39
2022-08-12T17:18:38.817Z,24.20
2022-08-12T17:20:47.714Z,24.59
2022-08-12T17:23:17.317Z,24.45
2022-08-12T17:25:49.019Z,24.79
2022-08-12T17:28:19.657Z,25.45
2022-08-12T17:30:54.437Z,25.70
2022-08-12T17:33:33.328Z,25.56
2022-08-12T17:36:05.571Z,25.73
2022-08-12T17:38:35.067Z,26.47
2022-08-12T17:41:21.543Z,26.59
2022-08-12T17:43:58.307Z,26.74
2022-08-12T17:46:33.399Z,26.63
2022-08-12T17:49:06.761Z,27.09
2022-08-12T17:52:02.850Z,27.15
2022-08-12T17:54:32.833Z,27.44
2022-08-12T17:57:10.707Z,26.98
2022-08-12T17:59:48.542Z,27.25
2022-08-12T18:02:25.538Z,26.89
2022-08-12T18:05:10.194Z,26.91
2022-08-12T18:07:39.362Z,27.17
2022-08-12T18:10:08.643Z,27.54
2022-08-12T18:12:38.639Z,27.80
2022-08-12T18:15:11.534Z,27.92
2022-08-12T18:17:59.389Z,27.84
2022-08-12T18:20:29.801Z,28.10
2022-08-12T18:23:01.199Z,28.25
2022-08-12T18:26:15.609Z,27.45
2022-08-12T18:28:43.219Z,27.99
2022-08-12T18:31:13.677Z,28.35
2022-08-12T18:33:43.997Z,28.39
2022-08-12T18:36:22.366Z,28.57
2022-08-12T18:38:56.285Z,28.68
2022-08-12T18:41:34.298Z,28.80
2022-08-12T18:44:07.990Z,28.75
2022-08-12T18:46:53.983Z,28.71
2022-08-12T18:49:30.810Z,28.78
2022-08-12T18:52:04.498Z,28.96
2022-08-12T18:54:36.123Z,29.23
2022-08-12T18:57:15.518Z,29.14
2022-08-12T18:59:59.756Z,29.25
2022-08-12T19:02:33.912Z,29.57
2022-08-12T19:05:09.501Z,29.26
2022-08-12T19:07:50.049Z,29.29
2022-08-12T19:10:30.306Z,29.22
2022-08-12T19:13:24.050Z,29.27
2022-08-12T19:15:57.755Z,29.66
2022-08-12T19:18:29.782Z,29.87
2022-08-12T19:21:06.336Z,29.51
2022-08-12T19:23:40.394Z,29.96
2022-08-12T19:26:10.764Z,30.08
2022-08-12T19:28:41.478Z,30.33
2022-08-12T19:31:56.859Z,30.48
2022-08-12T19:37:22.671Z,30.41
2022-08-12T19:40:09.841Z,30.97
2022-08-12T19:42:44.855Z,31.25
2022-08-12T19:45:17.113Z,31.56
2022-08-12T19:47:47.016Z,31.96
2022-08-12T19:50:20.068Z,32.59
2022-08-12T19:52:51.103Z,32.53
2022-08-12T19:55:23.320Z,32.35
2022-08-12T19:58:03.101Z,32.81
2022-08-12T20:00:36.479Z,32.81
2022-08-12T20:03:08.115Z,32.92
2022-08-12T20:06:05.328Z,33.29
2022-08-12T20:08:37.989Z,33.45
2022-08-12T20:12:12.660Z,33.51
2022-08-12T20:14:01.263Z,34.04
2022-08-12T20:19:53.295Z,34.31
2022-08-12T20:22:24.143Z,34.07
2022-08-12T20:25:01.732Z,34.12
2022-08-12T20:28:03.255Z,34.70
2022-08-12T20:30:37.377Z,34.89
2022-08-12T20:33:17.752Z,34.67
2022-08-12T20:36:13.529Z,34.48
2022-08-12T20:38:40.411Z,34.64
2022-08-12T20:41:16.790Z,35.04
2022-08-12T20:43:52.395Z,35.01
2022-08-12T20:46:21.559Z,35.05
2022-08-12T20:48:54.730Z,34.45
2022-08-12T20:51:24.950Z,34.51
2022-08-12T20:53:58.776Z,34.64
2022-08-12T20:56:33.427Z,34.72
2022-08-12T20:59:06.267Z,34.80
2022-08-12T21:01:47.085Z,34.81
2022-08-12T21:04:35.236Z,34.74
2022-08-12T21:07:09.535Z,34.43
2022-08-12T21:09:42.152Z,34.76
2022-08-12T21:12:31.066Z,34.40
2022-08-12T21:15:23.197Z,34.50
2022-08-12T21:18:11.031Z,35.16
2022-08-12T21:20:50.234Z,34.93
2022-08-12T21:23:22.792Z,35.51
2022-08-12T21:25:52.929Z,35.71
2022-08-12T21:28:31.093Z,36.06
2022-08-12T21:32:34.533Z,36.43
2022-08-12T21:34:08.789Z,36.70
2022-08-12T21:36:43.106Z,36.96
2022-08-12T21:39:18.868Z,36.73
2022-08-12T21:41:51.551Z,37.30
2022-08-12T21:45:44.682Z,37.19
2022-08-12T21:47:20.118Z,38.53
2022-08-12T21:50:03.000Z,37.97
2022-08-12T21:52:36.091Z,38.31
2022-08-12T21:55:08.592Z,38.18
2022-08-12T21:57:51.196Z,38.46
2022-08-12T22:00:32.268Z,38.52
2022-08-12T22:04:01.676Z,39.08
2022-08-12T22:06:31.734Z,39.84
2022-08-12T22:09:15.433Z,39.37
2022-08-12T22:11:58.732Z,39.66
2022-08-12T22:14:29.626Z,39.91
2022-08-12T22:17:00.391Z,39.69
2022-08-12T22:19:29.201Z,40.21
2022-08-12T22:22:05.372Z,40.08
2022-08-12T22:24:33.911Z,40.54
2022-08-12T22:27:08.380Z,40.85
2022-08-12T22:30:08.704Z,40.84
2022-08-12T22:32:47.497Z,40.97
2022-08-12T22:35:47.432Z,40.77
2022-08-12T22:38:23.800Z,41.63
2022-08-12T22:40:53.984Z,41.49
2022-08-12T22:44:00.710Z,41.03
2022-08-12T22:46:52.715Z,40.86
2022-08-12T22:49:37.291Z,41.65
2022-08-12T22:52:12.905Z,41.52
2022-08-12T22:55:00.182Z,41.25
2022-08-12T22:57:53.576Z,41.56
2022-08-12T23:00:27.410Z,41.67
2022-08-12T23:03:00.600Z,41.97
2022-08-12T23:05:36.833Z,42.16
2022-08-12T23:08:22.325Z,41.99
2022-08-12T23:10:50.593Z,41.99
2022-08-12T23:13:42.885Z,41.73
2022-08-12T23:16:18.131Z,42.13
2022-08-12T23:18:59.072Z,42.35
2022-08-12T23:22:03.391Z,42.46
2022-08-12T23:24:17.006Z,41.77
2022-08-12T23:27:03.289Z,42.71
2022-08-12T23:29:43.712Z,42.53
2022-08-12T23:32:35.099Z,43.03
2022-08-12T23:35:03.895Z,43.23
2022-08-12T23:37:47.284Z,43.23
2022-08-12T23:40:21.264Z,43.05
2022-08-12T23:42:50.749Z,42.89
2022-08-12T23:45:30.937Z,42.90
2022-08-12T23:48:02.524Z,44.03
2022-08-12T23:50:34.417Z,44.31
2022-08-12T23:53:05.554Z,43.95
2022-08-12T23:55:40.734Z,43.68
2022-08-12T23:58:21.253Z,44.46
